createdAt,value
2018-08-10T00:02:08.055Z,20.33
2018-08-10T00:04:38.561Z,20.39
2018-08-10T00:07:08.501Z,20.33
2018-08-10T00:09:37.990Z,20.30
2018-08-10T00:12:07.461Z,20.31
2018-08-10T00:14:37.189Z,20.33
2018-08-10T00:17:06.957Z,20.25
2018-08-10T00:19:36.779Z,20.16
2018-08-10T00:22:07.014Z,20.08
2018-08-10T00:24:36.503Z,20.06
2018-08-10T00:27:06.343Z,19.96
2018-08-10T00:29:36.394Z,19.92
2018-08-10T00:32:06.815Z,19.91
2018-08-10T00:34:37.563Z,19.89
2018-08-10T00:37:07.550Z,19.88
2018-08-10T00:39:37.382Z,19.80
2018-08-10T00:42:07.846Z,19.72
2018-08-10T00:44:37.762Z,19.69
2018-08-10T00:47:07.663Z,19.61
2018-08-10T00:49:37.590Z,19.61
2018-08-10T00:52:07.471Z,19.57
2018-08-10T00:54:37.586Z,19.49
2018-08-10T00:57:08.350Z,19.51
2018-08-10T00:59:38.024Z,19.47
2018-08-10T01:02:08.003Z,19.44
2018-08-10T01:04:38.677Z,19.30
2018-08-10T01:07:08.260Z,19.31
2018-08-10T01:09:37.909Z,19.39
2018-08-10T01:12:07.905Z,19.41
2018-08-10T01:14:37.564Z,19.39
2018-08-10T01:17:07.123Z,19.38
2018-08-10T01:19:38.221Z,19.35
2018-08-10T01:22:08.095Z,19.25
2018-08-10T01:24:38.134Z,19.23
2018-08-10T01:27:11.886Z,19.29
2018-08-10T01:29:41.553Z,19.23
2018-08-10T01:32:11.460Z,19.28
2018-08-10T01:34:41.620Z,19.26
2018-08-10T01:37:11.495Z,19.19
2018-08-10T01:39:41.469Z,19.19
2018-08-10T01:42:11.747Z,19.18
2018-08-10T01:44:41.284Z,19.23
2018-08-10T01:47:11.031Z,19.26
2018-08-10T01:49:41.201Z,19.23
2018-08-10T01:52:11.949Z,19.20
2018-08-10T01:54:41.451Z,19.21
2018-08-10T01:57:11.679Z,19.11
2018-08-10T01:59:41.560Z,19.10
2018-08-10T02:02:11.032Z,19.06
2018-08-10T02:04:41.197Z,19.07
2018-08-10T02:07:10.737Z,19.12
2018-08-10T02:09:41.161Z,19.09
2018-08-10T02:12:11.721Z,19.05
2018-08-10T02:14:41.659Z,19.06
2018-08-10T02:17:11.889Z,19.03
2018-08-10T02:19:42.029Z,19.00
2018-08-10T02:22:11.861Z,18.98
2018-08-10T02:24:41.857Z,18.95
2018-08-10T02:27:11.787Z,18.99
2018-08-10T02:29:41.444Z,18.97
2018-08-10T02:32:11.320Z,19.01
2018-08-10T02:34:40.722Z,18.89
2018-08-10T02:37:10.194Z,18.87
2018-08-10T02:39:39.838Z,18.94
2018-08-10T02:42:09.788Z,18.88
2018-08-10T02:44:39.382Z,18.89
2018-08-10T02:47:09.593Z,18.95
2018-08-10T02:49:39.335Z,18.91
2018-08-10T02:52:09.014Z,18.83
2018-08-10T02:54:39.583Z,18.83
2018-08-10T02:57:09.619Z,18.85
2018-08-10T02:59:39.465Z,18.65
2018-08-10T03:02:09.664Z,18.65
2018-08-10T03:04:39.456Z,18.63
2018-08-10T03:07:08.842Z,18.61
2018-08-10T03:09:39.006Z,18.64
2018-08-10T03:12:09.316Z,18.67
2018-08-10T03:14:39.343Z,18.62
2018-08-10T03:17:09.694Z,18.64
2018-08-10T03:19:39.453Z,18.61
2018-08-10T03:22:09.278Z,18.64
2018-08-10T03:24:38.913Z,18.60
2018-08-10T03:27:08.805Z,18.61
2018-08-10T03:29:38.425Z,18.58
2018-08-10T03:32:08.556Z,18.58
2018-08-10T03:34:38.464Z,18.57
2018-08-10T03:37:08.221Z,18.61
2018-08-10T03:39:38.335Z,18.57
2018-08-10T03:42:08.183Z,18.59
2018-08-10T03:44:37.997Z,18.52
2018-08-10T03:47:08.230Z,18.51
2018-08-10T03:49:37.863Z,18.52
2018-08-10T03:52:07.877Z,18.58
2018-08-10T03:54:38.183Z,18.54
2018-08-10T03:57:07.790Z,18.55
2018-08-10T03:59:37.296Z,18.59
2018-08-10T04:02:07.456Z,18.63
2018-08-10T04:04:36.934Z,18.65
2018-08-10T04:07:06.533Z,18.71
2018-08-10T04:09:36.462Z,18.81
2018-08-10T04:12:06.615Z,18.82
2018-08-10T04:14:36.379Z,18.86
2018-08-10T04:17:10.642Z,18.85
2018-08-10T04:19:40.060Z,18.86
2018-08-10T04:22:09.997Z,18.89
2018-08-10T04:24:39.607Z,18.91
2018-08-10T04:27:09.324Z,18.98
2018-08-10T04:29:38.772Z,19.05
2018-08-10T04:32:08.307Z,19.12
2018-08-10T04:34:38.165Z,19.16
2018-08-10T04:37:08.299Z,19.21
2018-08-10T04:39:38.463Z,19.23
2018-08-10T04:42:08.233Z,19.28
2018-08-10T04:44:37.565Z,19.27
2018-08-10T04:47:07.887Z,19.34
2018-08-10T04:49:37.463Z,19.36
2018-08-10T04:52:07.325Z,19.35
2018-08-10T04:54:38.127Z,19.34
2018-08-10T04:57:07.926Z,19.37
2018-08-10T04:59:37.650Z,19.43
2018-08-10T05:02:08.724Z,19.33
2018-08-10T05:04:38.925Z,19.42
2018-08-10T05:07:08.927Z,19.51
2018-08-10T05:09:38.782Z,19.51
2018-08-10T05:12:09.573Z,19.50
2018-08-10T05:14:39.593Z,19.66
2018-08-10T05:17:10.025Z,19.69
2018-08-10T05:19:39.775Z,19.64
2018-08-10T05:22:09.800Z,19.67
2018-08-10T05:24:39.527Z,19.73
2018-08-10T05:27:09.386Z,19.81
2018-08-10T05:29:38.979Z,19.83
2018-08-10T05:32:09.080Z,19.83
2018-08-10T05:34:38.743Z,20.03
2018-08-10T05:37:08.713Z,20.14
2018-08-10T05:39:38.511Z,20.16
2018-08-10T05:42:08.146Z,20.12
2018-08-10T05:44:37.795Z,20.16
2018-08-10T05:47:07.801Z,20.20
2018-08-10T05:49:37.281Z,20.16
2018-08-10T05:52:06.992Z,20.27
2018-08-10T05:54:36.922Z,20.32
2018-08-10T05:57:06.810Z,20.36
2018-08-10T05:59:36.533Z,20.43
2018-08-10T06:02:06.568Z,20.45
2018-08-10T06:04:36.536Z,20.66
2018-08-10T06:07:05.893Z,20.63
2018-08-10T06:09:35.998Z,20.70
2018-08-10T06:12:05.642Z,20.67
2018-08-10T06:14:35.497Z,20.71
2018-08-10T06:17:05.626Z,20.82
2018-08-10T06:19:35.033Z,20.81
2018-08-10T06:22:04.792Z,20.76
2018-08-10T06:24:34.347Z,21.01
2018-08-10T06:27:03.962Z,20.85
2018-08-10T06:29:33.862Z,20.81
2018-08-10T06:32:04.034Z,20.94
2018-08-10T06:34:33.712Z,21.10
2018-08-10T06:37:03.369Z,21.06
2018-08-10T06:39:33.159Z,21.31
2018-08-10T06:42:02.777Z,21.49
2018-08-10T06:44:32.355Z,21.66
2018-08-10T06:47:01.918Z,21.64
2018-08-10T06:49:31.362Z,21.80
2018-08-10T06:52:00.971Z,21.81
2018-08-10T06:54:30.907Z,21.75
2018-08-10T06:57:00.646Z,21.79
2018-08-10T06:59:30.320Z,21.81
2018-08-10T07:02:00.071Z,21.73
2018-08-10T07:04:29.538Z,21.91
2018-08-10T07:06:59.219Z,21.93
2018-08-10T07:09:29.143Z,22.08
2018-08-10T07:11:59.013Z,22.23
2018-08-10T07:14:28.458Z,22.41
2018-08-10T07:16:58.076Z,22.33
2018-08-10T07:19:27.670Z,22.32
2018-08-10T07:21:57.501Z,22.42
2018-08-10T07:24:27.052Z,22.34
2018-08-10T07:26:56.468Z,22.42
2018-08-10T07:29:26.242Z,22.46
2018-08-10T07:31:55.649Z,22.58
2018-08-10T07:34:25.548Z,22.71
2018-08-10T07:36:55.414Z,22.74
2018-08-10T07:39:25.503Z,22.79
2018-08-10T07:41:55.071Z,22.84
2018-08-10T07:44:24.990Z,22.85
2018-08-10T07:46:54.536Z,22.98
2018-08-10T07:49:24.121Z,23.11
2018-08-10T07:51:53.839Z,22.94
2018-08-10T07:54:23.949Z,22.97
2018-08-10T07:56:53.520Z,23.10
2018-08-10T07:59:22.973Z,23.27
2018-08-10T08:01:52.645Z,23.20
2018-08-10T08:04:22.343Z,23.44
2018-08-10T08:06:51.827Z,23.47
2018-08-10T08:09:21.823Z,23.69
2018-08-10T08:11:51.822Z,23.67
2018-08-10T08:14:21.431Z,23.68
2018-08-10T08:16:51.246Z,23.84
2018-08-10T08:19:20.788Z,23.86
2018-08-10T08:22:23.805Z,23.97
2018-08-10T08:24:53.168Z,24.02
2018-08-10T08:27:22.640Z,24.02
2018-08-10T08:29:52.423Z,24.00
2018-08-10T08:32:22.005Z,24.20
2018-08-10T08:34:51.929Z,24.19
2018-08-10T08:37:21.783Z,24.40
2018-08-10T08:40:09.244Z,24.38
2018-08-10T08:42:39.167Z,24.40
2018-08-10T08:46:12.422Z,24.67
2018-08-10T08:48:44.837Z,24.86
2018-08-10T08:51:16.848Z,24.68
2018-08-10T08:53:46.837Z,24.61
2018-08-10T08:56:17.739Z,24.66
2018-08-10T08:58:48.818Z,24.67
2018-08-10T09:01:18.797Z,24.83
2018-08-10T09:04:58.993Z,24.85
2018-08-10T09:07:29.241Z,24.90
2018-08-10T09:09:59.299Z,24.90
2018-08-10T09:12:29.353Z,25.09
2018-08-10T09:15:06.421Z,25.05
2018-08-10T09:17:36.956Z,24.94
2018-08-10T09:20:07.208Z,25.20
2018-08-10T09:22:37.077Z,24.97
2018-08-10T09:25:09.882Z,25.09
2018-08-10T09:27:39.357Z,25.12
2018-08-10T09:30:10.293Z,25.16
2018-08-10T09:32:40.543Z,25.14
2018-08-10T09:35:10.948Z,25.13
2018-08-10T09:37:41.335Z,25.22
2018-08-10T09:40:14.919Z,24.81
2018-08-10T09:42:45.167Z,24.99
2018-08-10T09:45:15.595Z,25.17
2018-08-10T09:47:46.603Z,25.41
2018-08-10T09:50:16.950Z,25.67
2018-08-10T09:52:57.705Z,25.80
2018-08-10T09:55:34.151Z,25.93
2018-08-10T09:58:10.125Z,25.88
2018-08-10T10:00:45.040Z,25.74
2018-08-10T10:03:23.170Z,25.57
2018-08-10T10:05:53.793Z,25.72
2018-08-10T10:08:24.433Z,25.76
2018-08-10T10:10:54.003Z,26.06
2018-08-10T10:13:23.596Z,26.46
2018-08-10T10:15:53.677Z,26.51
2018-08-10T10:18:23.094Z,26.83
2018-08-10T10:20:52.615Z,27.07
2018-08-10T10:23:22.354Z,27.25
2018-08-10T10:25:52.089Z,27.24
2018-08-10T10:28:21.681Z,27.26
2018-08-10T10:30:51.895Z,27.35
2018-08-10T10:33:21.430Z,27.39
2018-08-10T10:35:51.035Z,27.65
2018-08-10T10:38:20.793Z,27.37
2018-08-10T10:40:50.551Z,27.53
2018-08-10T10:43:20.267Z,27.21
2018-08-10T10:45:50.307Z,26.97
2018-08-10T10:48:20.181Z,27.00
2018-08-10T10:50:49.743Z,27.39
2018-08-10T10:53:19.531Z,27.29
2018-08-10T10:55:49.044Z,27.03
2018-08-10T10:58:18.622Z,27.24
2018-08-10T11:00:48.945Z,26.86
2018-08-10T11:03:18.548Z,27.18
2018-08-10T11:05:48.027Z,27.50
2018-08-10T11:08:17.990Z,27.69
2018-08-10T11:10:47.498Z,28.03
2018-08-10T11:13:17.200Z,28.21
2018-08-10T11:15:47.249Z,28.35
2018-08-10T11:18:16.770Z,28.50
2018-08-10T11:20:46.421Z,28.62
2018-08-10T11:23:16.792Z,28.60
2018-08-10T11:25:46.559Z,28.81
2018-08-10T11:28:15.981Z,28.73
2018-08-10T11:30:45.701Z,28.67
2018-08-10T11:33:15.764Z,29.02
2018-08-10T11:35:45.457Z,29.12
2018-08-10T11:38:17.041Z,28.78
2018-08-10T11:40:47.455Z,29.07
2018-08-10T11:43:19.454Z,29.22
2018-08-10T11:45:49.485Z,29.14
2018-08-10T11:48:19.492Z,29.05
2018-08-10T11:50:50.003Z,29.07
2018-08-10T11:53:19.477Z,29.12
2018-08-10T11:55:48.962Z,29.17
2018-08-10T11:58:19.080Z,29.30
2018-08-10T12:00:48.866Z,29.46
2018-08-10T12:03:18.699Z,29.63
2018-08-10T12:05:48.729Z,29.50
2018-08-10T12:08:19.116Z,29.37
2018-08-10T12:10:49.222Z,29.63
2018-08-10T12:13:19.383Z,29.76
2018-08-10T12:15:48.934Z,29.62
2018-08-10T12:18:18.884Z,29.87
2018-08-10T12:20:49.280Z,30.04
2018-08-10T12:23:19.058Z,30.11
2018-08-10T12:25:49.211Z,30.13
2018-08-10T12:28:19.234Z,30.28
2018-08-10T12:30:48.781Z,30.29
2018-08-10T12:33:18.758Z,30.41
2018-08-10T12:35:48.744Z,30.24
2018-08-10T12:38:18.564Z,30.51
2018-08-10T12:40:48.282Z,30.77
2018-08-10T12:43:18.321Z,30.92
2018-08-10T12:45:48.368Z,30.86
2018-08-10T12:48:18.300Z,31.45
2018-08-10T12:50:47.984Z,31.57
2018-08-10T12:53:18.033Z,31.73
2018-08-10T12:55:48.051Z,31.51
2018-08-10T12:58:17.747Z,31.47
2018-08-10T13:00:47.173Z,31.62
2018-08-10T13:03:17.158Z,31.78
2018-08-10T13:05:47.388Z,31.63
2018-08-10T13:08:16.978Z,30.98
2018-08-10T13:10:46.929Z,30.33
2018-08-10T13:13:17.037Z,30.23
2018-08-10T13:15:46.415Z,31.01
2018-08-10T13:18:16.374Z,31.45
2018-08-10T13:20:46.332Z,31.40
2018-08-10T13:23:16.142Z,31.82
2018-08-10T13:25:45.797Z,31.89
2018-08-10T13:28:15.658Z,31.58
2018-08-10T13:30:45.141Z,30.85
2018-08-10T13:33:14.744Z,30.47
2018-08-10T13:35:44.977Z,29.92
2018-08-10T13:38:14.716Z,29.54
2018-08-10T13:40:44.823Z,29.28
2018-08-10T13:43:14.552Z,29.18
2018-08-10T13:45:43.997Z,28.84
2018-08-10T13:48:13.502Z,28.74
2018-08-10T13:50:43.675Z,28.79
2018-08-10T13:53:13.302Z,29.19
2018-08-10T13:55:43.070Z,29.00
2018-08-10T13:58:13.548Z,29.07
2018-08-10T14:00:43.209Z,29.58
2018-08-10T14:03:13.000Z,30.07
2018-08-10T14:05:42.492Z,30.48
2018-08-10T14:08:11.929Z,30.00
2018-08-10T14:10:41.754Z,29.62
2018-08-10T14:13:11.227Z,27.85
2018-08-10T14:15:41.021Z,27.82
2018-08-10T14:18:11.027Z,27.66
2018-08-10T14:20:40.701Z,28.26
2018-08-10T14:23:10.373Z,29.01
2018-08-10T14:25:40.202Z,29.44
2018-08-10T14:28:10.222Z,29.43
2018-08-10T14:30:39.834Z,29.61
2018-08-10T14:33:09.384Z,29.71
2018-08-10T14:35:38.973Z,29.98
2018-08-10T14:38:08.875Z,30.10
2018-08-10T14:40:38.478Z,30.12
2018-08-10T14:43:08.012Z,30.24
2018-08-10T14:45:37.457Z,29.63
2018-08-10T14:48:07.000Z,29.05
2018-08-10T14:50:36.643Z,28.59
2018-08-10T14:53:06.324Z,28.32
2018-08-10T14:55:36.030Z,27.98
2018-08-10T14:58:06.383Z,27.86
2018-08-10T15:00:36.049Z,27.76
2018-08-10T15:03:05.818Z,27.77
2018-08-10T15:05:35.417Z,27.71
2018-08-10T15:08:04.798Z,27.60
2018-08-10T15:10:34.389Z,27.45
2018-08-10T15:13:04.693Z,27.30
2018-08-10T15:15:33.898Z,27.31
2018-08-10T15:18:03.521Z,27.25
2018-08-10T15:20:33.456Z,27.24
2018-08-10T15:23:03.060Z,27.16
2018-08-10T15:25:32.694Z,26.94
2018-08-10T15:28:02.993Z,27.10
2018-08-10T15:30:32.641Z,27.57
2018-08-10T15:33:02.326Z,27.64
2018-08-10T15:35:32.552Z,27.70
2018-08-10T15:38:02.349Z,27.49
2018-08-10T15:40:31.933Z,27.23
2018-08-10T15:43:01.579Z,27.22
2018-08-10T15:45:31.063Z,27.15
2018-08-10T15:48:00.743Z,26.95
2018-08-10T15:50:30.859Z,26.89
2018-08-10T15:53:00.293Z,26.72
2018-08-10T15:55:29.716Z,26.52
2018-08-10T15:58:00.049Z,26.41
2018-08-10T16:00:29.711Z,26.45
2018-08-10T16:02:59.328Z,26.20
2018-08-10T16:05:29.628Z,26.17
2018-08-10T16:07:59.141Z,26.13
2018-08-10T16:10:28.943Z,26.20
2018-08-10T16:12:58.831Z,26.24
2018-08-10T16:15:28.519Z,26.21
2018-08-10T16:17:58.417Z,26.02
2018-08-10T16:20:28.565Z,26.10
2018-08-10T16:22:58.271Z,26.16
2018-08-10T16:25:27.979Z,26.21
2018-08-10T16:27:58.338Z,26.25
2018-08-10T16:30:27.929Z,26.22
2018-08-10T16:32:57.988Z,26.21
2018-08-10T16:35:27.649Z,26.18
2018-08-10T16:37:57.230Z,26.01
2018-08-10T16:40:26.746Z,26.11
2018-08-10T16:42:56.681Z,25.98
2018-08-10T16:45:26.253Z,25.78
2018-08-10T16:47:55.921Z,25.56
2018-08-10T16:50:25.833Z,25.51
2018-08-10T16:52:55.513Z,25.42
2018-08-10T16:55:25.102Z,25.43
2018-08-10T16:57:54.743Z,25.34
2018-08-10T17:00:24.186Z,25.49
2018-08-10T17:02:53.659Z,25.41
2018-08-10T17:05:23.845Z,25.31
2018-08-10T17:07:53.441Z,25.22
2018-08-10T17:10:23.011Z,25.05
2018-08-10T17:12:53.114Z,25.00
2018-08-10T17:15:22.871Z,24.93
2018-08-10T17:17:52.362Z,24.96
2018-08-10T17:20:21.912Z,24.83
2018-08-10T17:22:51.626Z,24.74
2018-08-10T17:25:22.037Z,24.61
2018-08-10T17:27:52.037Z,24.56
2018-08-10T17:30:22.048Z,24.48
2018-08-10T17:32:51.715Z,24.46
2018-08-10T17:35:21.817Z,24.35
2018-08-10T17:37:51.663Z,24.38
2018-08-10T17:40:22.094Z,24.39
2018-08-10T17:42:52.095Z,24.27
2018-08-10T17:45:22.068Z,24.21
2018-08-10T17:47:52.100Z,24.10
2018-08-10T17:50:22.419Z,23.99
2018-08-10T17:52:53.746Z,23.99
2018-08-10T17:55:23.954Z,23.89
2018-08-10T17:57:53.830Z,23.95
2018-08-10T18:00:26.582Z,23.83
2018-08-10T18:02:56.165Z,23.79
2018-08-10T18:05:28.307Z,23.76
2018-08-10T18:07:58.121Z,23.67
2018-08-10T18:10:27.550Z,23.71
2018-08-10T18:12:57.698Z,23.62
2018-08-10T18:15:27.430Z,23.64
2018-08-10T18:17:56.938Z,23.58
2018-08-10T18:20:27.103Z,23.47
2018-08-10T18:22:56.720Z,23.37
2018-08-10T18:25:26.181Z,23.33
2018-08-10T18:27:56.452Z,23.37
2018-08-10T18:30:26.629Z,23.32
2018-08-10T18:32:56.141Z,23.24
2018-08-10T18:35:26.221Z,23.23
2018-08-10T18:37:55.926Z,23.17
2018-08-10T18:40:25.574Z,23.18
2018-08-10T18:42:55.666Z,23.17
2018-08-10T18:45:25.283Z,23.16
2018-08-10T18:47:54.732Z,23.21
2018-08-10T18:50:25.069Z,23.18
2018-08-10T18:52:54.628Z,23.20
2018-08-10T18:55:24.450Z,23.10
2018-08-10T18:57:54.685Z,23.04
2018-08-10T19:00:25.852Z,23.00
2018-08-10T19:02:56.133Z,22.93
2018-08-10T19:05:25.863Z,22.91
2018-08-10T19:07:55.666Z,22.86
2018-08-10T19:10:27.094Z,22.86
2018-08-10T19:12:56.697Z,22.79
2018-08-10T19:15:26.226Z,22.69
2018-08-10T19:17:56.360Z,22.61
2018-08-10T19:20:26.246Z,22.54
2018-08-10T19:22:55.770Z,22.37
2018-08-10T19:25:26.128Z,22.29
2018-08-10T19:27:55.947Z,22.23
2018-08-10T19:30:25.779Z,22.22
2018-08-10T19:32:55.427Z,22.25
2018-08-10T19:35:25.203Z,22.20
2018-08-10T19:37:54.817Z,22.08
2018-08-10T19:40:24.169Z,22.12
2018-08-10T19:42:53.517Z,21.92
2018-08-10T19:45:23.266Z,21.87
2018-08-10T19:47:53.222Z,21.83
2018-08-10T19:50:23.549Z,21.82
2018-08-10T19:52:54.506Z,21.82
2018-08-10T19:55:24.583Z,21.78
2018-08-10T19:57:54.152Z,21.67
2018-08-10T20:00:24.299Z,21.67
2018-08-10T20:02:53.861Z,21.61
2018-08-10T20:05:23.398Z,21.62
2018-08-10T20:07:53.138Z,21.45
2018-08-10T20:10:22.741Z,21.43
2018-08-10T20:12:52.293Z,21.38
2018-08-10T20:15:22.382Z,21.45
2018-08-10T20:17:52.057Z,21.36
2018-08-10T20:20:21.823Z,21.42
2018-08-10T20:22:51.805Z,21.36
2018-08-10T20:25:22.129Z,21.33
2018-08-10T20:27:51.840Z,21.33
2018-08-10T20:30:21.650Z,21.30
2018-08-10T20:32:51.587Z,21.30
2018-08-10T20:35:21.291Z,21.24
2018-08-10T20:37:51.425Z,21.23
2018-08-10T20:40:21.418Z,21.10
2018-08-10T20:42:51.597Z,21.08
2018-08-10T20:45:23.883Z,21.10
2018-08-10T20:47:53.882Z,21.11
2018-08-10T20:50:25.136Z,21.10
2018-08-10T21:10:17.062Z,20.82
2018-08-10T21:12:47.631Z,20.83
2018-08-10T21:15:17.608Z,20.74
2018-08-10T21:35:10.175Z,20.47
2018-08-10T21:37:40.145Z,20.46
2018-08-10T21:40:10.637Z,20.51
2018-08-10T21:42:41.061Z,20.47
2018-08-10T21:45:10.833Z,20.49
2018-08-10T21:47:40.583Z,20.42
2018-08-10T21:50:13.973Z,20.41
2018-08-10T21:52:45.530Z,20.27
2018-08-10T22:29:59.869Z,19.57
2018-08-10T22:32:29.848Z,19.59
2018-08-10T22:34:59.450Z,19.35
2018-08-10T22:37:28.894Z,19.32
2018-08-10T22:39:58.976Z,19.30
2018-08-10T22:42:28.765Z,19.36
2018-08-10T22:44:58.455Z,19.34
2018-08-10T22:47:28.794Z,19.32
2018-08-10T22:49:58.328Z,19.39
2018-08-10T22:52:28.154Z,19.31
2018-08-10T22:54:58.363Z,19.42
2018-08-10T22:57:27.889Z,19.36
2018-08-10T22:59:57.440Z,19.34
2018-08-10T23:02:27.216Z,19.35
2018-08-10T23:04:57.804Z,19.21
2018-08-10T23:07:27.360Z,19.17
2018-08-10T23:09:57.558Z,19.12
2018-08-10T23:12:27.027Z,19.04
2018-08-10T23:14:56.642Z,19.02
2018-08-10T23:17:26.485Z,19.08
2018-08-10T23:19:56.076Z,19.08
2018-08-10T23:22:26.511Z,19.01
2018-08-10T23:24:56.216Z,19.02
2018-08-10T23:27:25.938Z,19.11
2018-08-10T23:29:55.575Z,19.07
2018-08-10T23:49:46.538Z,19.02
2018-08-10T23:52:16.205Z,18.91
2018-08-10T23:54:46.072Z,18.89
2018-08-10T23:57:15.777Z,18.79
2018-08-10T23:59:45.602Z,18.79
